Time;durP1;ratioP1;P1;durP2;ratioP2;P2;SDS_P1;SDS_P2;PMS_P1;PMS_P2;Temp;Humidity;BMP_temperature;BMP_pressure;BME280_temperature;BME280_humidity;BME280_pressure;Samples;Min_cycle;Max_cycle;Signal;HPM_P1;HPM_P2
2023/05/21 00:00:52;;;;;;;17.43;14.67;;;14.50;99.90;;;;;;5047186;28;20465;-78
2023/05/21 00:03:19;;;;;;;18.60;15.17;;;14.50;99.90;;;;;;5040119;28;20499;-79
2023/05/21 00:05:48;;;;;;;17.50;15.67;;;14.40;99.90;;;;;;5046529;28;20456;-79
2023/05/21 00:08:16;;;;;;;18.40;15.40;;;14.50;99.90;;;;;;5048317;28;20547;-78
2023/05/21 00:10:44;;;;;;;17.83;16.00;;;14.50;99.90;;;;;;5049387;28;21029;-79
2023/05/21 00:13:11;;;;;;;19.10;16.23;;;14.50;99.90;;;;;;5050041;28;20505;-78
2023/05/21 00:15:38;;;;;;;15.27;13.73;;;14.50;99.90;;;;;;5047649;28;20449;-78
2023/05/21 00:18:05;;;;;;;17.40;15.80;;;14.50;99.90;;;;;;5036780;28;20480;-79
2023/05/21 00:20:32;;;;;;;18.97;16.97;;;14.40;99.90;;;;;;5047224;28;20499;-78
2023/05/21 00:23:01;;;;;;;18.70;16.80;;;14.50;99.90;;;;;;5050210;28;20535;-78
2023/05/21 00:25:28;;;;;;;19.80;16.67;;;14.40;99.90;;;;;;5047702;28;20488;-78
2023/05/21 00:27:57;;;;;;;19.90;17.93;;;14.40;99.90;;;;;;5044584;28;20468;-77
2023/05/21 00:30:24;;;;;;;17.90;16.10;;;14.40;99.90;;;;;;5050081;28;20472;-78
2023/05/21 00:32:51;;;;;;;19.00;16.90;;;14.40;99.90;;;;;;5048997;28;20449;-78
2023/05/21 00:35:18;;;;;;;17.83;16.17;;;14.40;99.90;;;;;;5049881;28;20453;-78
2023/05/21 00:37:46;;;;;;;18.80;16.70;;;14.30;99.90;;;;;;5048126;28;20539;-78
2023/05/21 00:40:14;;;;;;;19.53;16.73;;;14.30;99.90;;;;;;5049827;28;20440;-79
2023/05/21 00:42:41;;;;;;;19.60;17.57;;;14.40;99.90;;;;;;5049043;28;20452;-79
2023/05/21 00:45:09;;;;;;;20.73;18.60;;;14.40;99.90;;;;;;5048929;28;21295;-78
2023/05/21 00:47:37;;;;;;;20.47;18.20;;;14.30;99.90;;;;;;5049059;28;20546;-79
2023/05/21 00:50:06;;;;;;;20.23;18.00;;;14.30;99.90;;;;;;5047568;28;20447;-79
2023/05/21 00:52:40;;;;;;;19.87;17.83;;;14.20;99.90;;;;;;5046443;28;20539;-78
2023/05/21 00:55:08;;;;;;;19.60;17.63;;;14.20;99.90;;;;;;5048891;28;20440;-79
2023/05/21 00:57:36;;;;;;;20.47;18.13;;;14.20;99.90;;;;;;5048412;28;20534;-78
2023/05/21 01:00:06;;;;;;;20.37;18.37;;;14.20;99.90;;;;;;5047509;28;20470;-78
2023/05/21 01:02:35;;;;;;;20.33;18.17;;;14.20;99.90;;;;;;5043853;28;20445;-78
2023/05/21 01:05:04;;;;;;;19.40;17.37;;;14.20;99.90;;;;;;5032090;28;20539;-78
2023/05/21 01:07:33;;;;;;;19.00;17.10;;;14.10;99.90;;;;;;5048537;28;20461;-79
2023/05/21 01:10:02;;;;;;;20.70;17.80;;;14.10;99.90;;;;;;5047494;28;20461;-78
2023/05/21 01:12:31;;;;;;;24.63;18.73;;;14.10;99.90;;;;;;5048166;28;20495;-79
2023/05/21 01:14:59;;;;;;;22.20;18.20;;;14.10;99.90;;;;;;5048548;28;20445;-79
2023/05/21 01:17:28;;;;;;;20.63;18.57;;;14.10;99.90;;;;;;5046767;28;20477;-79
2023/05/21 01:19:58;;;;;;;19.00;17.00;;;14.10;99.90;;;;;;5048326;28;20445;-79
2023/05/21 01:22:27;;;;;;;20.27;18.20;;;14.00;99.90;;;;;;5048733;28;20901;-79
2023/05/21 01:24:55;;;;;;;19.20;17.30;;;14.00;99.90;;;;;;5045399;28;21332;-79
2023/05/21 01:27:22;;;;;;;19.70;17.67;;;14.00;99.90;;;;;;5048499;28;20523;-79
2023/05/21 01:29:49;;;;;;;18.73;16.83;;;14.00;99.90;;;;;;5047290;28;20909;-79
2023/05/21 01:32:24;;;;;;;19.27;17.37;;;14.00;99.90;;;;;;5048952;28;20515;-79
2023/05/21 01:35:02;;;;;;;18.43;15.90;;;14.00;99.90;;;;;;5046476;28;20452;-79
2023/05/21 01:37:34;;;;;;;16.67;14.80;;;13.90;99.90;;;;;;5048782;28;20492;-78
2023/05/21 01:40:08;;;;;;;17.87;16.17;;;13.90;99.90;;;;;;5043024;28;20468;-79
2023/05/21 01:42:38;;;;;;;18.10;16.13;;;13.90;99.90;;;;;;5041767;28;20499;-79
2023/05/21 01:45:07;;;;;;;16.70;15.00;;;13.90;99.90;;;;;;5046042;28;20481;-79
2023/05/21 01:47:36;;;;;;;18.03;16.13;;;13.80;99.90;;;;;;5047999;28;20515;-79
2023/05/21 01:50:05;;;;;;;18.70;14.67;;;13.70;99.90;;;;;;5046280;28;20457;-79
2023/05/21 01:52:32;;;;;;;18.23;16.10;;;13.70;99.90;;;;;;5048424;28;20465;-78
2023/05/21 01:55:00;;;;;;;17.60;15.80;;;13.70;99.90;;;;;;5035753;28;20456;-79
2023/05/21 01:57:28;;;;;;;18.07;16.17;;;13.70;99.90;;;;;;5047764;28;21060;-78
2023/05/21 01:59:57;;;;;;;17.67;15.97;;;13.70;99.90;;;;;;5045421;28;20466;-79
2023/05/21 02:02:23;;;;;;;18.30;16.33;;;13.60;99.90;;;;;;5039350;28;20453;-79
2023/05/21 02:04:51;;;;;;;15.20;13.70;;;13.50;99.90;;;;;;5046700;28;20514;-78
2023/05/21 02:07:18;;;;;;;17.97;16.07;;;13.50;99.90;;;;;;5048127;28;20488;-78
2023/05/21 02:09:45;;;;;;;18.00;16.13;;;13.40;99.90;;;;;;5046744;28;20998;-78
2023/05/21 02:12:12;;;;;;;17.83;14.50;;;13.50;99.90;;;;;;5047416;28;20441;-79
2023/05/21 02:14:41;;;;;;;16.50;14.80;;;13.50;99.90;;;;;;5048053;28;20507;-78
2023/05/21 02:17:08;;;;;;;17.97;16.00;;;13.40;99.90;;;;;;5046699;28;20511;-78
2023/05/21 02:19:35;;;;;;;17.20;15.60;;;13.40;99.90;;;;;;5046404;28;20975;-79
2023/05/21 02:22:02;;;;;;;18.80;16.80;;;13.40;99.90;;;;;;5047596;28;20472;-78
2023/05/21 02:24:29;;;;;;;19.43;16.33;;;13.30;99.90;;;;;;5041848;28;20458;-78
2023/05/21 02:26:57;;;;;;;20.80;17.50;;;13.30;99.90;;;;;;5041012;28;20467;-78
2023/05/21 02:29:24;;;;;;;21.63;16.80;;;13.30;99.90;;;;;;5044631;28;20445;-79
2023/05/21 02:31:52;;;;;;;21.10;18.77;;;13.20;99.90;;;;;;5047351;28;20825;-79
2023/05/21 02:34:19;;;;;;;21.40;17.90;;;13.30;99.90;;;;;;5044340;28;20502;-79
2023/05/21 02:36:51;;;;;;;21.70;18.30;;;13.30;99.90;;;;;;5047112;28;20556;-78
2023/05/21 02:39:18;;;;;;;19.90;17.80;;;13.30;99.90;;;;;;5046741;28;20554;-79
2023/05/21 02:41:45;;;;;;;20.83;18.70;;;13.30;99.90;;;;;;5046650;28;20475;-79
2023/05/21 02:44:12;;;;;;;23.00;18.40;;;13.30;99.90;;;;;;5047864;28;20819;-79
2023/05/21 02:46:39;;;;;;;21.37;19.07;;;13.20;99.90;;;;;;5045904;28;20543;-79
2023/05/21 02:49:08;;;;;;;22.40;19.97;;;13.20;99.90;;;;;;5047234;28;20449;-79
2023/05/21 02:51:34;;;;;;;19.90;17.77;;;13.20;99.90;;;;;;5045253;28;20507;-79
2023/05/21 02:54:01;;;;;;;21.10;18.77;;;13.20;99.90;;;;;;5040871;28;21641;-79
2023/05/21 02:56:28;;;;;;;29.63;20.63;;;13.20;99.90;;;;;;5047370;28;20488;-79
2023/05/21 02:58:55;;;;;;;26.40;20.70;;;13.20;99.90;;;;;;5046969;28;20574;-79
2023/05/21 03:01:22;;;;;;;20.00;17.90;;;13.10;99.90;;;;;;5046071;28;20461;-79
2023/05/21 03:03:49;;;;;;;22.53;18.67;;;13.10;99.90;;;;;;5037252;28;20944;-79
2023/05/21 03:06:17;;;;;;;21.13;18.87;;;13.10;99.90;;;;;;5046351;28;20465;-79
2023/05/21 03:08:44;;;;;;;21.83;18.97;;;13.10;99.90;;;;;;5045619;28;20442;-79
2023/05/21 03:11:11;;;;;;;20.00;17.90;;;13.10;99.90;;;;;;5047011;28;20574;-79
2023/05/21 03:13:38;;;;;;;23.23;20.90;;;13.10;99.90;;;;;;5045516;28;20441;-79
2023/05/21 03:16:06;;;;;;;22.80;18.17;;;13.10;99.90;;;;;;5046644;28;20530;-79
2023/05/21 03:18:33;;;;;;;21.07;18.80;;;13.10;99.90;;;;;;5045367;28;20614;-78
2023/05/21 03:21:00;;;;;;;21.93;19.73;;;13.20;99.90;;;;;;5045920;28;20518;-78
2023/05/21 03:23:28;;;;;;;22.03;19.53;;;13.10;99.90;;;;;;5045908;28;20995;-79
2023/05/21 03:25:55;;;;;;;24.07;21.17;;;13.10;99.90;;;;;;5038484;28;20860;-78
2023/05/21 03:28:22;;;;;;;22.97;18.97;;;13.10;99.90;;;;;;5043218;28;20501;-79
2023/05/21 03:30:49;;;;;;;29.40;20.47;;;13.10;99.90;;;;;;5045229;28;20909;-79
2023/05/21 03:33:17;;;;;;;23.63;21.10;;;13.10;99.90;;;;;;5043824;28;20493;-79
2023/05/21 03:35:44;;;;;;;21.07;18.87;;;13.10;99.90;;;;;;5050032;28;20453;-79
2023/05/21 03:38:11;;;;;;;22.50;18.63;;;13.10;99.90;;;;;;5050995;28;20558;-78
2023/05/21 03:40:39;;;;;;;25.30;20.83;;;13.20;99.90;;;;;;5049763;28;20464;-79
2023/05/21 03:43:06;;;;;;;22.23;19.80;;;13.30;99.90;;;;;;5050564;28;20502;-79
2023/05/21 03:45:33;;;;;;;22.40;18.50;;;13.30;99.90;;;;;;5050172;28;20538;-79
2023/05/21 03:48:01;;;;;;;21.23;19.00;;;13.30;99.90;;;;;;5048346;28;20453;-79
2023/05/21 03:50:27;;;;;;;21.73;19.10;;;13.40;99.90;;;;;;5049256;28;20448;-79
2023/05/21 03:52:54;;;;;;;20.87;18.67;;;13.50;99.90;;;;;;5047470;28;20510;-79
2023/05/21 03:55:22;;;;;;;22.10;19.63;;;13.50;99.90;;;;;;5049357;28;20433;-79
2023/05/21 03:57:50;;;;;;;22.13;18.63;;;13.60;99.90;;;;;;5047857;28;20546;-78
2023/05/21 04:00:17;;;;;;;20.53;18.27;;;13.60;99.90;;;;;;5041844;28;20515;-79
2023/05/21 04:02:44;;;;;;;17.30;15.50;;;13.70;99.90;;;;;;5049595;28;20503;-79
2023/05/21 04:05:11;;;;;;;19.83;17.37;;;13.80;99.90;;;;;;5048995;28;20441;-79
2023/05/21 04:07:38;;;;;;;18.10;16.00;;;13.80;99.90;;;;;;5048007;28;21014;-79
2023/05/21 04:10:06;;;;;;;21.20;18.90;;;13.90;99.90;;;;;;5050031;28;20453;-78
2023/05/21 04:12:33;;;;;;;20.13;17.13;;;13.90;99.90;;;;;;5048827;28;20507;-79
2023/05/21 04:15:02;;;;;;;20.00;16.53;;;13.90;99.90;;;;;;5049475;28;20493;-79
2023/05/21 04:17:29;;;;;;;17.83;16.13;;;14.00;99.90;;;;;;5049310;28;20453;-79
2023/05/21 04:19:56;;;;;;;19.60;17.63;;;13.90;99.90;;;;;;5047167;28;20451;-79
2023/05/21 04:22:25;;;;;;;17.80;16.00;;;13.90;99.90;;;;;;5044378;28;20458;-79
2023/05/21 04:24:53;;;;;;;20.67;18.47;;;14.10;99.90;;;;;;5041686;28;20855;-79
2023/05/21 04:27:22;;;;;;;21.03;18.83;;;14.10;99.90;;;;;;5037629;28;21192;-79
2023/05/21 04:29:49;;;;;;;20.93;17.97;;;14.20;99.90;;;;;;5045119;28;20468;-78
2023/05/21 04:32:17;;;;;;;20.97;18.77;;;14.20;99.90;;;;;;5040693;28;20469;-79
2023/05/21 04:34:44;;;;;;;20.00;17.87;;;14.30;99.90;;;;;;5044900;28;20457;-79
2023/05/21 04:37:12;;;;;;;20.87;18.30;;;14.50;99.90;;;;;;5042480;28;20917;-79
2023/05/21 04:39:39;;;;;;;23.40;19.77;;;14.60;99.90;;;;;;5032006;28;20499;-79
2023/05/21 04:42:09;;;;;;;22.67;20.37;;;14.60;99.90;;;;;;5034710;28;20448;-78
2023/05/21 04:44:37;;;;;;;19.70;17.60;;;14.60;99.90;;;;;;5037939;28;21030;-78
2023/05/21 04:47:04;;;;;;;19.70;17.60;;;14.60;99.90;;;;;;5041921;28;20469;-79
2023/05/21 04:49:33;;;;;;;20.03;17.73;;;14.70;99.90;;;;;;5036892;28;21452;-78
2023/05/21 04:52:00;;;;;;;21.13;18.10;;;14.90;99.90;;;;;;5042317;28;20469;-78
2023/05/21 04:54:27;;;;;;;22.50;18.90;;;14.80;99.90;;;;;;5046444;28;20457;-78
2023/05/21 04:56:55;;;;;;;21.17;19.10;;;15.00;99.90;;;;;;5030105;28;20538;-79
2023/05/21 04:59:22;;;;;;;20.80;18.60;;;15.10;99.90;;;;;;5037123;28;21047;-78
2023/05/21 05:01:49;;;;;;;20.60;18.43;;;15.20;99.90;;;;;;5036891;28;20460;-78
2023/05/21 05:04:16;;;;;;;20.80;17.00;;;15.40;99.90;;;;;;5035125;28;20450;-79
2023/05/21 05:06:44;;;;;;;20.43;18.27;;;15.50;99.90;;;;;;5028907;28;20503;-79
2023/05/21 05:09:11;;;;;;;21.00;17.60;;;15.40;99.90;;;;;;5040949;28;20983;-79
2023/05/21 05:11:38;;;;;;;19.47;17.37;;;15.60;99.90;;;;;;5032825;28;20441;-79
2023/05/21 05:14:07;;;;;;;18.03;16.33;;;15.60;99.90;;;;;;5034718;28;20462;-80
2023/05/21 05:16:34;;;;;;;19.27;15.93;;;15.60;99.90;;;;;;5034202;28;20952;-79
2023/05/21 05:19:01;;;;;;;18.47;16.63;;;15.60;99.90;;;;;;5031770;28;20983;-79
2023/05/21 05:21:28;;;;;;;17.40;15.60;;;15.70;99.90;;;;;;5041256;28;20980;-78
2023/05/21 05:23:56;;;;;;;16.73;15.00;;;15.70;99.90;;;;;;5042659;28;21027;-78
2023/05/21 05:26:24;;;;;;;18.17;16.27;;;15.50;99.90;;;;;;5045368;28;20495;-78
2023/05/21 05:28:51;;;;;;;16.83;15.07;;;15.50;99.90;;;;;;5043110;28;20469;-79
2023/05/21 05:31:18;;;;;;;19.97;17.87;;;15.70;99.90;;;;;;5047050;28;20507;-79
2023/05/21 05:33:45;;;;;;;18.73;16.87;;;15.90;99.90;;;;;;5046538;28;20470;-79
2023/05/21 05:36:11;;;;;;;17.83;15.33;;;16.10;99.90;;;;;;5044320;28;20582;-79
2023/05/21 05:38:38;;;;;;;18.10;16.30;;;16.20;99.90;;;;;;5039144;28;21081;-79
2023/05/21 05:41:07;;;;;;;17.60;15.77;;;16.30;99.90;;;;;;5041366;28;20457;-79
2023/05/21 05:43:34;;;;;;;18.63;16.80;;;16.30;99.90;;;;;;5039053;28;20462;-79
2023/05/21 05:46:01;;;;;;;16.77;15.23;;;16.40;99.90;;;;;;5039171;28;20479;-79
2023/05/21 05:48:28;;;;;;;19.23;17.40;;;16.50;99.90;;;;;;5045058;28;20511;-79
2023/05/21 05:50:55;;;;;;;17.50;15.70;;;16.50;99.90;;;;;;5041352;28;20524;-78
2023/05/21 05:53:23;;;;;;;19.70;16.60;;;16.70;99.90;;;;;;5041320;28;20762;-79
2023/05/21 05:55:50;;;;;;;16.10;14.60;;;17.00;99.90;;;;;;5045067;28;20882;-79
2023/05/21 05:58:19;;;;;;;17.23;15.53;;;17.10;99.90;;;;;;5041351;28;20483;-79
2023/05/21 06:00:46;;;;;;;17.00;15.30;;;17.00;99.90;;;;;;5043200;28;20461;-79
2023/05/21 06:03:13;;;;;;;17.40;15.60;;;17.00;99.90;;;;;;5039682;28;20496;-79
2023/05/21 06:05:40;;;;;;;17.17;15.60;;;17.30;99.90;;;;;;5043305;28;20476;-78
2023/05/21 06:08:07;;;;;;;17.17;15.50;;;17.20;99.90;;;;;;5045128;28;21010;-79
2023/05/21 06:10:33;;;;;;;18.83;17.07;;;17.00;99.90;;;;;;5028317;28;21064;-79
2023/05/21 06:13:00;;;;;;;21.50;15.37;;;17.10;99.90;;;;;;5042870;28;20453;-78
2023/05/21 06:15:29;;;;;;;18.27;16.40;;;17.20;99.90;;;;;;5030733;28;20472;-78
2023/05/21 06:17:56;;;;;;;16.60;14.80;;;17.50;99.90;;;;;;5043720;28;20506;-78
2023/05/21 06:20:22;;;;;;;15.57;14.07;;;17.60;99.90;;;;;;5040065;28;20442;-79
2023/05/21 06:22:50;;;;;;;19.00;16.83;;;17.50;99.90;;;;;;5042700;28;20461;-79
2023/05/21 06:25:17;;;;;;;16.70;15.10;;;17.50;99.90;;;;;;5045909;28;20467;-80
2023/05/21 06:27:44;;;;;;;15.20;13.83;;;17.70;99.90;;;;;;5042682;28;20934;-79
2023/05/21 06:30:11;;;;;;;16.80;15.20;;;17.70;99.90;;;;;;5043840;28;20444;-79
2023/05/21 06:32:40;;;;;;;17.37;15.77;;;17.80;99.90;;;;;;5039732;28;20505;-79
2023/05/21 06:35:07;;;;;;;16.47;14.77;;;17.80;99.90;;;;;;5037916;28;20545;-79
2023/05/21 06:37:34;;;;;;;16.10;14.40;;;17.90;99.90;;;;;;5033524;28;20514;-79
2023/05/21 06:40:02;;;;;;;17.90;16.23;;;18.00;99.90;;;;;;5043323;28;20505;-79
2023/05/21 06:42:29;;;;;;;16.53;15.07;;;18.30;99.90;;;;;;5048823;28;20455;-79
2023/05/21 06:44:56;;;;;;;15.70;14.30;;;18.40;99.90;;;;;;5042430;28;20524;-79
2023/05/21 06:47:22;;;;;;;16.63;15.03;;;18.30;99.90;;;;;;5043858;28;20587;-79
2023/05/21 06:49:51;;;;;;;15.63;14.20;;;18.40;99.90;;;;;;5051722;28;20468;-79
2023/05/21 06:52:18;;;;;;;15.40;13.90;;;18.60;99.90;;;;;;5042067;28;20521;-79
2023/05/21 06:54:45;;;;;;;15.77;14.37;;;18.70;99.90;;;;;;5040805;28;20530;-79
2023/05/21 06:57:12;;;;;;;15.60;14.20;;;18.90;99.90;;;;;;5042989;28;20522;-80
2023/05/21 06:59:39;;;;;;;15.70;14.30;;;19.00;99.90;;;;;;5043031;28;20951;-79
2023/05/21 07:02:06;;;;;;;13.83;12.57;;;19.20;99.90;;;;;;5047566;28;20515;-80
2023/05/21 07:04:34;;;;;;;14.37;13.17;;;19.00;99.90;;;;;;5041488;28;20463;-79
2023/05/21 07:07:03;;;;;;;14.77;13.37;;;19.00;99.90;;;;;;5033699;28;20636;-79
2023/05/21 07:09:30;;;;;;;16.03;14.63;;;19.00;99.90;;;;;;5039075;28;20458;-80
2023/05/21 07:11:57;;;;;;;13.13;11.93;;;19.20;99.90;;;;;;5042853;28;20515;-79
2023/05/21 07:14:25;;;;;;;14.77;13.27;;;19.40;99.90;;;;;;5041548;28;20456;-79
2023/05/21 07:16:52;;;;;;;14.30;12.90;;;19.50;99.90;;;;;;5045868;28;20801;-80
2023/05/21 07:19:19;;;;;;;14.57;13.07;;;19.50;99.90;;;;;;5043340;28;20487;-79
2023/05/21 07:21:46;;;;;;;15.73;14.17;;;19.50;99.90;;;;;;5039613;28;21028;-79
2023/05/21 07:24:15;;;;;;;15.50;13.33;;;19.80;99.90;;;;;;5037541;28;21054;-79
2023/05/21 07:26:42;;;;;;;14.27;12.93;;;19.60;99.90;;;;;;5036654;28;22332;-79
2023/05/21 07:29:09;;;;;;;13.77;12.47;;;19.70;99.90;;;;;;5036255;28;20882;-79
2023/05/21 07:31:36;;;;;;;14.40;13.10;;;19.90;99.90;;;;;;5035282;28;20458;-79
2023/05/21 07:34:03;;;;;;;15.17;13.73;;;20.30;99.90;;;;;;5038143;28;20454;-79
2023/05/21 07:36:32;;;;;;;12.97;11.97;;;20.30;99.90;;;;;;5039934;28;20948;-79
2023/05/21 07:38:59;;;;;;;13.20;12.10;;;20.00;99.90;;;;;;5039816;28;20596;-79
2023/05/21 07:41:27;;;;;;;13.20;12.00;;;20.40;99.90;;;;;;5043982;28;20569;-79
2023/05/21 07:43:54;;;;;;;14.93;13.43;;;20.60;99.90;;;;;;5052723;28;20484;-79
2023/05/21 07:46:21;;;;;;;14.23;13.07;;;20.50;99.90;;;;;;5041811;28;21177;-79
2023/05/21 07:48:48;;;;;;;12.80;11.70;;;20.40;99.90;;;;;;5044019;28;20446;-79
2023/05/21 07:51:15;;;;;;;14.27;12.93;;;20.50;99.90;;;;;;5041059;28;20955;-79
2023/05/21 07:53:42;;;;;;;15.47;13.90;;;20.80;99.90;;;;;;5027331;28;20547;-79
2023/05/21 07:56:09;;;;;;;14.57;13.20;;;20.60;99.90;;;;;;5029792;28;20468;-79
2023/05/21 07:58:38;;;;;;;14.27;12.87;;;20.70;99.90;;;;;;5033699;28;20791;-79
2023/05/21 08:01:05;;;;;;;12.43;11.33;;;20.80;99.90;;;;;;5029481;28;20458;-79
2023/05/21 08:03:32;;;;;;;13.53;12.43;;;20.90;99.90;;;;;;5032510;28;20457;-79
2023/05/21 08:05:59;;;;;;;13.43;12.00;;;21.10;99.90;;;;;;5032582;28;20545;-79
2023/05/21 08:08:26;;;;;;;11.77;10.73;;;21.20;99.90;;;;;;5030873;28;20446;-79
2023/05/21 08:10:53;;;;;;;12.33;11.13;;;21.10;99.90;;;;;;5030976;28;20967;-79
2023/05/21 08:13:20;;;;;;;12.13;11.03;;;21.10;99.90;;;;;;5031547;28;20583;-79
2023/05/21 08:15:49;;;;;;;12.30;11.10;;;21.20;99.90;;;;;;5032365;28;20983;-79
2023/05/21 08:18:17;;;;;;;13.33;12.13;;;21.50;99.90;;;;;;5030998;28;20446;-78
2023/05/21 08:20:44;;;;;;;14.83;11.03;;;21.50;99.90;;;;;;5033782;28;20492;-79
2023/05/21 08:23:11;;;;;;;11.67;10.47;;;21.50;99.90;;;;;;5044082;28;20511;-79
2023/05/21 08:25:38;;;;;;;12.90;11.80;;;21.60;99.90;;;;;;5039495;28;20532;-79
2023/05/21 08:28:05;;;;;;;13.77;11.90;;;21.70;99.90;;;;;;5049639;28;20465;-79
2023/05/21 08:30:32;;;;;;;13.30;12.10;;;21.70;99.90;;;;;;5049403;28;21092;-79
2023/05/21 08:33:01;;;;;;;12.63;11.43;;;21.80;99.90;;;;;;5048971;28;20478;-79
2023/05/21 08:35:28;;;;;;;11.87;10.87;;;22.00;99.90;;;;;;5057143;28;20479;-79
2023/05/21 08:37:55;;;;;;;14.80;12.00;;;22.00;99.90;;;;;;5040665;28;20866;-80
2023/05/21 08:40:22;;;;;;;12.37;11.43;;;22.00;99.90;;;;;;5045604;28;20525;-80
2023/05/21 08:42:49;;;;;;;11.17;10.27;;;22.00;99.90;;;;;;5044574;28;20501;-80
2023/05/21 08:45:21;;;;;;;12.20;10.90;;;22.10;99.90;;;;;;5048711;28;20550;-80
2023/05/21 08:47:55;;;;;;;11.73;10.70;;;22.00;99.90;;;;;;5046878;28;20453;-80
2023/05/21 08:50:26;;;;;;;11.40;9.93;;;22.30;99.90;;;;;;5036812;28;20458;-80
2023/05/21 08:52:54;;;;;;;10.97;9.97;;;22.60;99.90;;;;;;5048578;28;20969;-80
2023/05/21 08:55:22;;;;;;;22.63;10.80;;;22.50;99.90;;;;;;5047765;28;20452;-80
2023/05/21 08:57:50;;;;;;;10.80;10.00;;;22.40;99.90;;;;;;5050160;28;20545;-80
2023/05/21 09:00:19;;;;;;;13.40;12.10;;;22.30;99.90;;;;;;5046256;28;20497;-79
2023/05/21 09:02:46;;;;;;;11.03;10.00;;;22.30;99.90;;;;;;5048303;28;20443;-80
2023/05/21 09:05:15;;;;;;;12.07;11.10;;;22.30;99.90;;;;;;5047742;28;20461;-79
2023/05/21 09:07:50;;;;;;;13.00;11.90;;;22.50;99.90;;;;;;5047600;28;20489;-80
2023/05/21 09:10:22;;;;;;;11.93;10.93;;;22.70;99.90;;;;;;5046681;28;20463;-79
2023/05/21 09:12:52;;;;;;;11.93;9.73;;;22.60;99.90;;;;;;5047319;28;20516;-80
2023/05/21 09:15:19;;;;;;;11.73;10.00;;;22.80;99.90;;;;;;5039507;28;20491;-80
2023/05/21 09:17:47;;;;;;;11.10;10.00;;;22.80;99.90;;;;;;5046452;28;20581;-80
2023/05/21 09:20:16;;;;;;;11.53;10.50;;;23.00;99.90;;;;;;5043735;28;20958;-79
2023/05/21 09:22:46;;;;;;;11.23;10.33;;;22.90;99.90;;;;;;5055114;28;20996;-79
2023/05/21 09:25:13;;;;;;;10.97;10.10;;;23.10;99.90;;;;;;5043530;28;20629;-79
2023/05/21 09:27:41;;;;;;;11.70;10.50;;;23.20;99.90;;;;;;5040126;28;20467;-78
2023/05/21 09:30:11;;;;;;;11.00;10.00;;;23.10;99.90;;;;;;5042203;28;20557;-79
2023/05/21 09:32:38;;;;;;;11.47;10.30;;;23.20;99.90;;;;;;5043118;28;20487;-78
2023/05/21 09:35:09;;;;;;;11.90;10.77;;;22.90;99.90;;;;;;5038810;28;20503;-78
2023/05/21 09:37:42;;;;;;;11.97;10.90;;;23.10;99.90;;;;;;5040668;28;20522;-78
2023/05/21 09:40:15;;;;;;;10.93;9.90;;;23.30;99.90;;;;;;5044131;28;20482;-78
2023/05/21 09:42:45;;;;;;;9.63;8.90;;;23.40;99.90;;;;;;5041744;28;20991;-79
2023/05/21 09:45:13;;;;;;;10.23;9.27;;;23.40;99.90;;;;;;5032088;28;20553;-79
2023/05/21 09:47:43;;;;;;;9.67;8.87;;;23.60;99.90;;;;;;5040813;28;20538;-78
2023/05/21 09:50:11;;;;;;;9.67;8.77;;;23.50;99.90;;;;;;5031944;28;20949;-78
2023/05/21 09:52:38;;;;;;;10.97;9.10;;;23.40;99.90;;;;;;5039121;28;20465;-79
2023/05/21 09:55:10;;;;;;;11.90;8.77;;;23.70;99.90;;;;;;5042528;28;20465;-79
2023/05/21 09:57:42;;;;;;;8.73;8.03;;;23.60;99.90;;;;;;5043832;28;20463;-78
2023/05/21 10:00:21;;;;;;;8.20;7.50;;;23.80;99.90;;;;;;5038700;28;20482;-79
2023/05/21 10:02:49;;;;;;;8.80;8.00;;;23.90;99.90;;;;;;5037798;28;20567;-78
2023/05/21 10:05:16;;;;;;;9.00;8.20;;;23.90;99.90;;;;;;5035602;28;20488;-79
2023/05/21 10:07:48;;;;;;;9.67;8.87;;;23.90;99.90;;;;;;5052652;28;20535;-79
2023/05/21 10:10:16;;;;;;;9.77;7.77;;;23.80;99.90;;;;;;5027454;28;20441;-79
2023/05/21 10:12:47;;;;;;;9.30;8.50;;;23.70;99.90;;;;;;5038931;28;20502;-79
2023/05/21 10:15:18;;;;;;;10.00;9.20;;;24.10;99.90;;;;;;5028457;28;20567;-78
2023/05/21 10:17:47;;;;;;;17.30;8.00;;;24.00;99.90;;;;;;5039869;28;20460;-78
2023/05/21 10:20:14;;;;;;;8.20;7.50;;;24.20;99.90;;;;;;5041472;28;21381;-78
2023/05/21 10:22:41;;;;;;;8.10;7.33;;;24.20;99.90;;;;;;5045122;28;20526;-79
2023/05/21 10:25:09;;;;;;;9.20;8.50;;;24.40;99.90;;;;;;5044309;28;20468;-78
2023/05/21 10:27:37;;;;;;;8.40;7.57;;;24.70;99.30;;;;;;5047275;28;20518;-78
2023/05/21 10:30:07;;;;;;;8.20;7.50;;;24.80;99.50;;;;;;5046099;28;20511;-78
2023/05/21 10:32:34;;;;;;;7.27;6.77;;;25.00;98.60;;;;;;5047895;28;20813;-78
2023/05/21 10:35:02;;;;;;;8.33;7.63;;;24.80;99.00;;;;;;5040203;28;20500;-79
2023/05/21 10:37:29;;;;;;;7.80;7.20;;;24.80;98.30;;;;;;5047666;28;20467;-79
2023/05/21 10:39:56;;;;;;;8.10;7.50;;;24.80;99.30;;;;;;5037143;28;20488;-79
2023/05/21 10:43:02;;;;;;;7.93;7.33;;;25.20;98.30;;;;;;5027253;28;20478;-79
2023/05/21 10:45:46;;;;;;;8.30;7.60;;;25.40;99.00;;;;;;5029852;28;20891;-78
2023/05/21 10:48:27;;;;;;;9.23;8.43;;;25.40;99.90;;;;;;5030406;28;20453;-79
2023/05/21 10:51:17;;;;;;;10.97;9.07;;;25.20;99.40;;;;;;5040552;28;20470;-78
2023/05/21 10:54:12;;;;;;;9.83;7.90;;;24.90;98.90;;;;;;5045027;28;20878;-79
2023/05/21 10:56:45;;;;;;;8.40;7.60;;;25.10;99.90;;;;;;5042724;28;20515;-79
2023/05/21 10:59:32;;;;;;;7.87;7.37;;;25.20;98.80;;;;;;5036615;28;20855;-78
2023/05/21 11:02:01;;;;;;;7.43;6.83;;;24.90;95.60;;;;;;5033540;28;20458;-79
2023/05/21 11:04:28;;;;;;;8.73;7.90;;;25.10;96.40;;;;;;5031743;28;20516;-79
2023/05/21 11:06:56;;;;;;;7.83;7.23;;;25.10;96.40;;;;;;5042923;28;20466;-79
2023/05/21 11:09:23;;;;;;;8.20;7.50;;;25.10;96.80;;;;;;5026907;28;20447;-79
2023/05/21 11:11:51;;;;;;;8.13;6.77;;;25.20;97.00;;;;;;5040526;28;20465;-79
2023/05/21 11:14:33;;;;;;;7.90;7.10;;;25.40;94.60;;;;;;5044318;28;20572;-78
2023/05/21 11:17:03;;;;;;;8.53;7.80;;;25.50;95.60;;;;;;5038073;28;20467;-79
2023/05/21 11:19:35;;;;;;;7.97;7.33;;;25.70;96.10;;;;;;5032725;28;20556;-79
2023/05/21 11:22:10;;;;;;;8.63;8.03;;;26.00;94.60;;;;;;5037424;28;20572;-79
2023/05/21 11:24:41;;;;;;;8.07;7.47;;;25.90;93.90;;;;;;5038566;28;20890;-79
2023/05/21 11:27:08;;;;;;;7.87;7.17;;;25.90;93.70;;;;;;5043042;28;21510;-79
2023/05/21 11:29:43;;;;;;;8.00;7.27;;;25.60;94.10;;;;;;5043943;28;20457;-79
2023/05/21 11:32:14;;;;;;;7.47;6.80;;;25.50;92.00;;;;;;5034283;28;20468;-79
2023/05/21 11:34:45;;;;;;;7.93;7.33;;;25.30;94.20;;;;;;5042237;28;20878;-78
2023/05/21 11:37:30;;;;;;;8.90;7.07;;;25.30;91.50;;;;;;5036690;28;20461;-79
2023/05/21 11:39:59;;;;;;;8.27;7.57;;;25.20;96.40;;;;;;5037561;28;20549;-79
2023/05/21 11:42:33;;;;;;;7.80;7.10;;;25.40;94.50;;;;;;5035729;28;20944;-79
2023/05/21 11:45:01;;;;;;;8.37;7.60;;;25.40;94.00;;;;;;5041443;28;20489;-78
2023/05/21 11:47:30;;;;;;;7.67;7.17;;;25.40;93.20;;;;;;5034728;28;20999;-79
2023/05/21 11:49:59;;;;;;;8.93;8.23;;;25.40;94.50;;;;;;5035221;28;20451;-79
2023/05/21 11:52:27;;;;;;;8.23;7.10;;;25.50;93.40;;;;;;5035315;28;20498;-79
2023/05/21 11:54:56;;;;;;;8.30;7.50;;;25.40;93.80;;;;;;5040317;28;20559;-79
2023/05/21 11:57:25;;;;;;;8.17;7.50;;;25.20;92.20;;;;;;5044705;28;21070;-79
2023/05/21 11:59:52;;;;;;;9.10;8.23;;;25.00;93.70;;;;;;5041121;28;20457;-79
2023/05/21 12:02:21;;;;;;;8.00;7.40;;;24.90;94.10;;;;;;5038855;28;20484;-78
2023/05/21 12:04:51;;;;;;;8.83;7.20;;;25.40;96.50;;;;;;5036676;28;20811;-78
2023/05/21 12:07:19;;;;;;;8.40;7.60;;;25.30;92.50;;;;;;5036175;28;20458;-79
2023/05/21 12:09:47;;;;;;;7.77;7.07;;;25.10;93.00;;;;;;5038926;28;20453;-79
2023/05/21 12:12:16;;;;;;;8.30;7.70;;;25.30;94.60;;;;;;5043233;28;21065;-79
2023/05/21 12:14:46;;;;;;;7.80;7.23;;;25.10;93.80;;;;;;5039300;28;20988;-79
2023/05/21 12:17:16;;;;;;;7.80;7.20;;;24.90;94.50;;;;;;5030864;28;20461;-79
2023/05/21 12:19:44;;;;;;;8.37;7.57;;;25.20;94.30;;;;;;5051229;28;20457;-79
2023/05/21 12:22:14;;;;;;;7.30;6.80;;;25.70;94.30;;;;;;5050095;28;20514;-79
2023/05/21 12:24:42;;;;;;;9.00;8.10;;;25.20;94.40;;;;;;5044967;28;20461;-79
2023/05/21 12:27:11;;;;;;;7.70;7.00;;;24.90;94.40;;;;;;5044380;28;20500;-79
2023/05/21 12:29:40;;;;;;;7.73;7.13;;;24.50;94.70;;;;;;5042893;28;21000;-79
2023/05/21 12:32:08;;;;;;;8.07;7.47;;;24.00;94.10;;;;;;5047432;28;20552;-79
2023/05/21 12:34:43;;;;;;;8.07;7.33;;;23.70;94.80;;;;;;5052888;28;20919;-79
2023/05/21 12:37:15;;;;;;;7.90;7.23;;;23.60;95.70;;;;;;5046962;28;20712;-78